sensor_id;sensor_type;location;lat;lon;timestamp;P1;durP1;ratioP1;P2;durP2;ratioP2
17570;SDS011;8903;52.220;20.978;2022-11-20T00:00:48;50.50;;;26.87;;
17570;SDS011;8903;52.220;20.978;2022-11-20T00:03:16;44.00;;;26.73;;
17570;SDS011;8903;52.220;20.978;2022-11-20T00:05:43;48.10;;;25.10;;
17570;SDS011;8903;52.220;20.978;2022-11-20T00:08:10;47.77;;;25.83;;
17570;SDS011;8903;52.220;20.978;2022-11-20T00:10:38;49.60;;;27.47;;
17570;SDS011;8903;52.220;20.978;2022-11-20T00:13:07;50.00;;;26.23;;
17570;SDS011;8903;52.220;20.978;2022-11-20T00:15:36;48.70;;;25.80;;
17570;SDS011;8903;52.220;20.978;2022-11-20T00:18:03;43.17;;;25.33;;
17570;SDS011;8903;52.220;20.978;2022-11-20T00:20:30;55.40;;;28.70;;
17570;SDS011;8903;52.220;20.978;2022-11-20T00:22:57;44.10;;;25.57;;
17570;SDS011;8903;52.220;20.978;2022-11-20T00:25:24;46.93;;;26.80;;
17570;SDS011;8903;52.220;20.978;2022-11-20T00:27:51;50.67;;;26.93;;
17570;SDS011;8903;52.220;20.978;2022-11-20T00:30:18;47.17;;;25.30;;
17570;SDS011;8903;52.220;20.978;2022-11-20T00:32:47;48.17;;;26.97;;
17570;SDS011;8903;52.220;20.978;2022-11-20T00:35:14;49.97;;;28.80;;
17570;SDS011;8903;52.220;20.978;2022-11-20T00:37:41;44.10;;;26.47;;
17570;SDS011;8903;52.220;20.978;2022-11-20T00:40:08;48.90;;;25.83;;
17570;SDS011;8903;52.220;20.978;2022-11-20T00:42:36;44.37;;;27.17;;
17570;SDS011;8903;52.220;20.978;2022-11-20T00:45:03;50.50;;;26.97;;
17570;SDS011;8903;52.220;20.978;2022-11-20T00:47:33;50.63;;;27.07;;
17570;SDS011;8903;52.220;20.978;2022-11-20T00:50:02;50.23;;;27.90;;
17570;SDS011;8903;52.220;20.978;2022-11-20T00:52:29;47.43;;;27.30;;
17570;SDS011;8903;52.220;20.978;2022-11-20T00:54:57;48.47;;;26.73;;
17570;SDS011;8903;52.220;20.978;2022-11-20T00:57:24;53.23;;;30.37;;
17570;SDS011;8903;52.220;20.978;2022-11-20T00:59:51;54.60;;;27.27;;
17570;SDS011;8903;52.220;20.978;2022-11-20T01:02:19;44.17;;;24.23;;
17570;SDS011;8903;52.220;20.978;2022-11-20T01:04:46;45.93;;;25.97;;
17570;SDS011;8903;52.220;20.978;2022-11-20T01:07:14;50.33;;;25.07;;
17570;SDS011;8903;52.220;20.978;2022-11-20T01:09:41;46.03;;;25.73;;
17570;SDS011;8903;52.220;20.978;2022-11-20T01:12:08;49.27;;;26.70;;
17570;SDS011;8903;52.220;20.978;2022-11-20T01:14:35;47.83;;;25.53;;
17570;SDS011;8903;52.220;20.978;2022-11-20T01:17:02;44.83;;;25.20;;
17570;SDS011;8903;52.220;20.978;2022-11-20T01:19:30;45.63;;;27.53;;
17570;SDS011;8903;52.220;20.978;2022-11-20T01:21:57;50.03;;;26.33;;
17570;SDS011;8903;52.220;20.978;2022-11-20T01:24:26;47.27;;;27.00;;
17570;SDS011;8903;52.220;20.978;2022-11-20T01:26:53;50.97;;;26.73;;
17570;SDS011;8903;52.220;20.978;2022-11-20T01:29:21;45.37;;;25.77;;
17570;SDS011;8903;52.220;20.978;2022-11-20T01:31:49;44.63;;;26.40;;
17570;SDS011;8903;52.220;20.978;2022-11-20T01:34:18;50.03;;;26.40;;
17570;SDS011;8903;52.220;20.978;2022-11-20T01:36:47;46.33;;;24.27;;
17570;SDS011;8903;52.220;20.978;2022-11-20T01:39:16;41.60;;;23.10;;
17570;SDS011;8903;52.220;20.978;2022-11-20T01:41:46;46.20;;;24.50;;
17570;SDS011;8903;52.220;20.978;2022-11-20T01:44:48;50.37;;;25.30;;
17570;SDS011;8903;52.220;20.978;2022-11-20T01:47:20;41.00;;;23.90;;
17570;SDS011;8903;52.220;20.978;2022-11-20T01:49:52;47.07;;;23.83;;
17570;SDS011;8903;52.220;20.978;2022-11-20T01:52:23;42.10;;;23.97;;
17570;SDS011;8903;52.220;20.978;2022-11-20T01:54:55;40.60;;;22.30;;
17570;SDS011;8903;52.220;20.978;2022-11-20T01:57:28;44.17;;;24.37;;
17570;SDS011;8903;52.220;20.978;2022-11-20T02:00:00;42.80;;;22.90;;
17570;SDS011;8903;52.220;20.978;2022-11-20T02:02:37;44.53;;;23.70;;
17570;SDS011;8903;52.220;20.978;2022-11-20T02:05:10;37.30;;;23.07;;
17570;SDS011;8903;52.220;20.978;2022-11-20T02:07:44;40.97;;;23.43;;
17570;SDS011;8903;52.220;20.978;2022-11-20T02:10:12;45.77;;;22.83;;
17570;SDS011;8903;52.220;20.978;2022-11-20T02:12:44;44.20;;;23.87;;
17570;SDS011;8903;52.220;20.978;2022-11-20T02:15:32;40.90;;;24.40;;
17570;SDS011;8903;52.220;20.978;2022-11-20T02:18:00;44.53;;;25.10;;
17570;SDS011;8903;52.220;20.978;2022-11-20T02:20:27;51.57;;;26.80;;
17570;SDS011;8903;52.220;20.978;2022-11-20T02:22:55;42.47;;;25.17;;
17570;SDS011;8903;52.220;20.978;2022-11-20T02:25:27;53.63;;;28.20;;
17570;SDS011;8903;52.220;20.978;2022-11-20T02:27:56;47.53;;;26.07;;
17570;SDS011;8903;52.220;20.978;2022-11-20T02:30:23;42.17;;;23.50;;
17570;SDS011;8903;52.220;20.978;2022-11-20T02:32:52;45.20;;;26.47;;
17570;SDS011;8903;52.220;20.978;2022-11-20T02:35:39;46.70;;;23.87;;
17570;SDS011;8903;52.220;20.978;2022-11-20T02:38:12;45.03;;;25.37;;
17570;SDS011;8903;52.220;20.978;2022-11-20T02:40:43;46.87;;;26.10;;
17570;SDS011;8903;52.220;20.978;2022-11-20T02:43:10;42.90;;;23.93;;
17570;SDS011;8903;52.220;20.978;2022-11-20T02:45:37;48.10;;;25.73;;
17570;SDS011;8903;52.220;20.978;2022-11-20T02:48:05;47.20;;;25.33;;
17570;SDS011;8903;52.220;20.978;2022-11-20T02:50:36;49.53;;;28.53;;
17570;SDS011;8903;52.220;20.978;2022-11-20T02:53:04;45.77;;;27.03;;
17570;SDS011;8903;52.220;20.978;2022-11-20T02:55:31;42.60;;;26.00;;
17570;SDS011;8903;52.220;20.978;2022-11-20T02:58:00;45.83;;;25.60;;
17570;SDS011;8903;52.220;20.978;2022-11-20T03:00:27;52.10;;;25.90;;
17570;SDS011;8903;52.220;20.978;2022-11-20T03:02:54;45.50;;;27.43;;
17570;SDS011;8903;52.220;20.978;2022-11-20T03:05:21;53.37;;;27.73;;
17570;SDS011;8903;52.220;20.978;2022-11-20T03:07:48;42.80;;;26.77;;
17570;SDS011;8903;52.220;20.978;2022-11-20T03:10:15;50.17;;;29.03;;
17570;SDS011;8903;52.220;20.978;2022-11-20T03:12:43;51.77;;;26.83;;
17570;SDS011;8903;52.220;20.978;2022-11-20T03:15:12;48.20;;;27.00;;
17570;SDS011;8903;52.220;20.978;2022-11-20T03:17:38;37.70;;;24.30;;
17570;SDS011;8903;52.220;20.978;2022-11-20T03:20:06;41.43;;;24.83;;
17570;SDS011;8903;52.220;20.978;2022-11-20T03:22:36;48.73;;;25.17;;
17570;SDS011;8903;52.220;20.978;2022-11-20T03:25:03;50.30;;;27.33;;
17570;SDS011;8903;52.220;20.978;2022-11-20T03:27:31;52.00;;;28.40;;
17570;SDS011;8903;52.220;20.978;2022-11-20T03:30:00;47.33;;;26.60;;
17570;SDS011;8903;52.220;20.978;2022-11-20T03:32:30;50.60;;;29.00;;
17570;SDS011;8903;52.220;20.978;2022-11-20T03:34:57;46.13;;;26.97;;
17570;SDS011;8903;52.220;20.978;2022-11-20T03:37:24;52.90;;;27.13;;
17570;SDS011;8903;52.220;20.978;2022-11-20T03:39:51;49.07;;;29.60;;
17570;SDS011;8903;52.220;20.978;2022-11-20T03:42:21;50.73;;;26.90;;
17570;SDS011;8903;52.220;20.978;2022-11-20T03:45:06;55.50;;;27.40;;
17570;SDS011;8903;52.220;20.978;2022-11-20T03:47:35;48.23;;;28.17;;
17570;SDS011;8903;52.220;20.978;2022-11-20T03:50:02;45.87;;;28.03;;
17570;SDS011;8903;52.220;20.978;2022-11-20T03:52:30;54.70;;;28.53;;
17570;SDS011;8903;52.220;20.978;2022-11-20T03:54:57;51.83;;;26.67;;
17570;SDS011;8903;52.220;20.978;2022-11-20T03:57:24;53.50;;;29.43;;
17570;SDS011;8903;52.220;20.978;2022-11-20T03:59:51;53.80;;;29.30;;
17570;SDS011;8903;52.220;20.978;2022-11-20T04:02:18;57.23;;;28.30;;
17570;SDS011;8903;52.220;20.978;2022-11-20T04:04:46;49.77;;;28.30;;
17570;SDS011;8903;52.220;20.978;2022-11-20T04:07:13;55.83;;;27.47;;
17570;SDS011;8903;52.220;20.978;2022-11-20T04:09:40;54.57;;;28.77;;
17570;SDS011;8903;52.220;20.978;2022-11-20T04:12:07;54.93;;;27.40;;
17570;SDS011;8903;52.220;20.978;2022-11-20T04:14:34;44.10;;;26.70;;
17570;SDS011;8903;52.220;20.978;2022-11-20T04:17:01;54.80;;;29.00;;
17570;SDS011;8903;52.220;20.978;2022-11-20T04:19:29;48.90;;;27.10;;
17570;SDS011;8903;52.220;20.978;2022-11-20T04:21:58;49.73;;;27.37;;
17570;SDS011;8903;52.220;20.978;2022-11-20T04:24:25;54.63;;;29.53;;
17570;SDS011;8903;52.220;20.978;2022-11-20T04:26:53;50.47;;;27.27;;
17570;SDS011;8903;52.220;20.978;2022-11-20T04:29:20;50.33;;;27.70;;
17570;SDS011;8903;52.220;20.978;2022-11-20T04:31:47;54.53;;;27.90;;
17570;SDS011;8903;52.220;20.978;2022-11-20T04:34:14;48.23;;;26.17;;
17570;SDS011;8903;52.220;20.978;2022-11-20T04:36:42;56.57;;;29.10;;
17570;SDS011;8903;52.220;20.978;2022-11-20T04:39:14;50.13;;;27.77;;
17570;SDS011;8903;52.220;20.978;2022-11-20T04:41:42;53.30;;;28.00;;
17570;SDS011;8903;52.220;20.978;2022-11-20T04:44:09;50.27;;;26.73;;
17570;SDS011;8903;52.220;20.978;2022-11-20T04:46:37;48.17;;;27.73;;
17570;SDS011;8903;52.220;20.978;2022-11-20T04:49:06;54.30;;;29.57;;
17570;SDS011;8903;52.220;20.978;2022-11-20T04:51:36;48.27;;;26.03;;
17570;SDS011;8903;52.220;20.978;2022-11-20T04:54:04;48.00;;;26.47;;
17570;SDS011;8903;52.220;20.978;2022-11-20T04:56:32;54.57;;;27.73;;
17570;SDS011;8903;52.220;20.978;2022-11-20T04:58:59;54.90;;;28.67;;
17570;SDS011;8903;52.220;20.978;2022-11-20T05:01:27;40.03;;;23.97;;
17570;SDS011;8903;52.220;20.978;2022-11-20T05:03:54;50.47;;;27.47;;
17570;SDS011;8903;52.220;20.978;2022-11-20T05:06:22;46.17;;;24.17;;
17570;SDS011;8903;52.220;20.978;2022-11-20T05:08:49;48.03;;;25.83;;
17570;SDS011;8903;52.220;20.978;2022-11-20T05:11:17;48.83;;;27.10;;
17570;SDS011;8903;52.220;20.978;2022-11-20T05:13:47;49.20;;;25.13;;
17570;SDS011;8903;52.220;20.978;2022-11-20T05:16:17;53.93;;;27.90;;
17570;SDS011;8903;52.220;20.978;2022-11-20T05:18:46;42.37;;;23.40;;
17570;SDS011;8903;52.220;20.978;2022-11-20T05:21:13;37.07;;;23.43;;
17570;SDS011;8903;52.220;20.978;2022-11-20T05:23:43;41.23;;;24.90;;
17570;SDS011;8903;52.220;20.978;2022-11-20T05:26:12;40.47;;;24.53;;
17570;SDS011;8903;52.220;20.978;2022-11-20T05:28:40;55.37;;;26.37;;
17570;SDS011;8903;52.220;20.978;2022-11-20T05:31:09;46.53;;;27.37;;
17570;SDS011;8903;52.220;20.978;2022-11-20T05:33:39;47.80;;;25.37;;
17570;SDS011;8903;52.220;20.978;2022-11-20T05:36:08;36.50;;;24.40;;
17570;SDS011;8903;52.220;20.978;2022-11-20T05:38:36;43.47;;;25.80;;
17570;SDS011;8903;52.220;20.978;2022-11-20T05:41:04;45.47;;;26.57;;
17570;SDS011;8903;52.220;20.978;2022-11-20T05:43:34;47.30;;;24.63;;
17570;SDS011;8903;52.220;20.978;2022-11-20T05:46:02;45.00;;;24.90;;
17570;SDS011;8903;52.220;20.978;2022-11-20T05:48:31;37.63;;;23.03;;
17570;SDS011;8903;52.220;20.978;2022-11-20T05:51:01;54.10;;;25.50;;
17570;SDS011;8903;52.220;20.978;2022-11-20T05:53:29;47.57;;;26.23;;
17570;SDS011;8903;52.220;20.978;2022-11-20T05:55:57;50.27;;;25.70;;
17570;SDS011;8903;52.220;20.978;2022-11-20T05:58:25;42.60;;;26.20;;
17570;SDS011;8903;52.220;20.978;2022-11-20T06:00:52;51.43;;;25.90;;
17570;SDS011;8903;52.220;20.978;2022-11-20T06:03:20;46.27;;;23.53;;
17570;SDS011;8903;52.220;20.978;2022-11-20T06:05:51;43.93;;;23.30;;
17570;SDS011;8903;52.220;20.978;2022-11-20T06:08:18;40.83;;;24.63;;
17570;SDS011;8903;52.220;20.978;2022-11-20T06:10:45;42.17;;;24.60;;
17570;SDS011;8903;52.220;20.978;2022-11-20T06:13:14;48.20;;;25.03;;
17570;SDS011;8903;52.220;20.978;2022-11-20T06:15:42;46.23;;;24.93;;
17570;SDS011;8903;52.220;20.978;2022-11-20T06:18:14;46.63;;;23.93;;
17570;SDS011;8903;52.220;20.978;2022-11-20T06:20:46;43.93;;;24.07;;
17570;SDS011;8903;52.220;20.978;2022-11-20T06:23:17;44.33;;;26.10;;
17570;SDS011;8903;52.220;20.978;2022-11-20T06:25:44;44.57;;;25.23;;
17570;SDS011;8903;52.220;20.978;2022-11-20T06:28:14;49.33;;;26.73;;
17570;SDS011;8903;52.220;20.978;2022-11-20T06:30:44;40.33;;;24.40;;
17570;SDS011;8903;52.220;20.978;2022-11-20T06:33:14;48.07;;;25.53;;
17570;SDS011;8903;52.220;20.978;2022-11-20T06:36:11;43.50;;;24.03;;
17570;SDS011;8903;52.220;20.978;2022-11-20T06:38:57;50.20;;;25.90;;
17570;SDS011;8903;52.220;20.978;2022-11-20T06:41:25;50.37;;;25.50;;
17570;SDS011;8903;52.220;20.978;2022-11-20T06:43:54;42.30;;;24.77;;
17570;SDS011;8903;52.220;20.978;2022-11-20T06:46:24;45.47;;;25.47;;
17570;SDS011;8903;52.220;20.978;2022-11-20T06:48:52;46.33;;;27.10;;
17570;SDS011;8903;52.220;20.978;2022-11-20T06:51:22;56.20;;;28.30;;
17570;SDS011;8903;52.220;20.978;2022-11-20T06:56:38;48.93;;;24.77;;
17570;SDS011;8903;52.220;20.978;2022-11-20T06:59:17;44.37;;;24.70;;
17570;SDS011;8903;52.220;20.978;2022-11-20T07:01:49;45.83;;;24.80;;
17570;SDS011;8903;52.220;20.978;2022-11-20T07:04:16;47.83;;;25.97;;
17570;SDS011;8903;52.220;20.978;2022-11-20T07:06:44;45.83;;;24.80;;
17570;SDS011;8903;52.220;20.978;2022-11-20T07:09:17;51.43;;;26.77;;
17570;SDS011;8903;52.220;20.978;2022-11-20T07:11:48;48.70;;;26.30;;
17570;SDS011;8903;52.220;20.978;2022-11-20T07:14:16;46.37;;;24.30;;
17570;SDS011;8903;52.220;20.978;2022-11-20T07:16:46;42.80;;;25.40;;
17570;SDS011;8903;52.220;20.978;2022-11-20T07:19:13;48.30;;;28.10;;
17570;SDS011;8903;52.220;20.978;2022-11-20T07:21:42;45.23;;;25.03;;
17570;SDS011;8903;52.220;20.978;2022-11-20T07:24:09;48.60;;;25.77;;
17570;SDS011;8903;52.220;20.978;2022-11-20T07:26:38;48.13;;;26.00;;
17570;SDS011;8903;52.220;20.978;2022-11-20T07:29:05;43.60;;;25.93;;
17570;SDS011;8903;52.220;20.978;2022-11-20T07:31:34;48.57;;;27.00;;
17570;SDS011;8903;52.220;20.978;2022-11-20T07:34:05;50.40;;;29.20;;
17570;SDS011;8903;52.220;20.978;2022-11-20T07:36:33;46.77;;;28.27;;
17570;SDS011;8903;52.220;20.978;2022-11-20T07:39:06;42.90;;;25.20;;
17570;SDS011;8903;52.220;20.978;2022-11-20T07:41:34;52.97;;;25.43;;
17570;SDS011;8903;52.220;20.978;2022-11-20T07:44:05;50.33;;;25.70;;
17570;SDS011;8903;52.220;20.978;2022-11-20T07:46:43;53.43;;;30.13;;
17570;SDS011;8903;52.220;20.978;2022-11-20T07:49:14;52.43;;;27.70;;
17570;SDS011;8903;52.220;20.978;2022-11-20T07:51:42;47.07;;;26.53;;
17570;SDS011;8903;52.220;20.978;2022-11-20T07:54:11;57.27;;;32.13;;
17570;SDS011;8903;52.220;20.978;2022-11-20T07:56:49;46.93;;;27.07;;
17570;SDS011;8903;52.220;20.978;2022-11-20T07:59:20;52.30;;;27.80;;
17570;SDS011;8903;52.220;20.978;2022-11-20T08:01:48;50.17;;;27.40;;
17570;SDS011;8903;52.220;20.978;2022-11-20T08:04:20;48.40;;;27.60;;
17570;SDS011;8903;52.220;20.978;2022-11-20T08:06:51;52.20;;;30.57;;
17570;SDS011;8903;52.220;20.978;2022-11-20T08:09:19;58.13;;;29.80;;
17570;SDS011;8903;52.220;20.978;2022-11-20T08:11:49;53.50;;;29.30;;
17570;SDS011;8903;52.220;20.978;2022-11-20T08:14:44;51.03;;;29.23;;
17570;SDS011;8903;52.220;20.978;2022-11-20T08:17:15;54.30;;;29.57;;
17570;SDS011;8903;52.220;20.978;2022-11-20T08:19:51;61.97;;;31.00;;
17570;SDS011;8903;52.220;20.978;2022-11-20T08:22:26;50.07;;;27.60;;
17570;SDS011;8903;52.220;20.978;2022-11-20T08:24:53;55.90;;;29.20;;
17570;SDS011;8903;52.220;20.978;2022-11-20T08:27:20;53.00;;;28.70;;
17570;SDS011;8903;52.220;20.978;2022-11-20T08:29:54;48.70;;;28.60;;
17570;SDS011;8903;52.220;20.978;2022-11-20T08:32:25;52.87;;;28.20;;
17570;SDS011;8903;52.220;20.978;2022-11-20T08:34:58;57.03;;;29.10;;
17570;SDS011;8903;52.220;20.978;2022-11-20T08:37:25;52.27;;;29.50;;
17570;SDS011;8903;52.220;20.978;2022-11-20T08:39:52;51.27;;;29.20;;
17570;SDS011;8903;52.220;20.978;2022-11-20T08:42:25;50.70;;;30.90;;
17570;SDS011;8903;52.220;20.978;2022-11-20T08:44:53;54.37;;;30.30;;
17570;SDS011;8903;52.220;20.978;2022-11-20T08:47:21;58.97;;;30.60;;
17570;SDS011;8903;52.220;20.978;2022-11-20T08:49:53;50.83;;;29.40;;
17570;SDS011;8903;52.220;20.978;2022-11-20T08:52:22;52.17;;;30.83;;
17570;SDS011;8903;52.220;20.978;2022-11-20T08:54:51;49.47;;;29.00;;
17570;SDS011;8903;52.220;20.978;2022-11-20T08:57:22;54.20;;;30.67;;
17570;SDS011;8903;52.220;20.978;2022-11-20T08:59:49;53.10;;;30.67;;
17570;SDS011;8903;52.220;20.978;2022-11-20T09:02:20;52.60;;;29.97;;
17570;SDS011;8903;52.220;20.978;2022-11-20T09:04:48;53.47;;;29.80;;
17570;SDS011;8903;52.220;20.978;2022-11-20T09:07:17;58.87;;;32.30;;
17570;SDS011;8903;52.220;20.978;2022-11-20T09:09:47;49.57;;;28.90;;
17570;SDS011;8903;52.220;20.978;2022-11-20T09:12:15;53.13;;;30.43;;
17570;SDS011;8903;52.220;20.978;2022-11-20T09:14:43;54.70;;;31.40;;
17570;SDS011;8903;52.220;20.978;2022-11-20T09:17:12;51.20;;;29.90;;
17570;SDS011;8903;52.220;20.978;2022-11-20T09:19:42;53.43;;;31.10;;
17570;SDS011;8903;52.220;20.978;2022-11-20T09:22:10;48.77;;;29.67;;
17570;SDS011;8903;52.220;20.978;2022-11-20T09:24:40;57.07;;;31.90;;
17570;SDS011;8903;52.220;20.978;2022-11-20T09:27:08;61.70;;;30.00;;
17570;SDS011;8903;52.220;20.978;2022-11-20T09:29:35;54.00;;;32.80;;
17570;SDS011;8903;52.220;20.978;2022-11-20T09:32:03;53.63;;;31.60;;
17570;SDS011;8903;52.220;20.978;2022-11-20T09:34:31;53.83;;;33.13;;
17570;SDS011;8903;52.220;20.978;2022-11-20T09:37:03;48.70;;;29.87;;
17570;SDS011;8903;52.220;20.978;2022-11-20T09:39:35;52.13;;;29.93;;
17570;SDS011;8903;52.220;20.978;2022-11-20T09:42:13;53.53;;;32.97;;
17570;SDS011;8903;52.220;20.978;2022-11-20T09:45:02;55.03;;;31.07;;
17570;SDS011;8903;52.220;20.978;2022-11-20T09:47:41;55.93;;;31.07;;
17570;SDS011;8903;52.220;20.978;2022-11-20T09:50:20;56.60;;;33.80;;
17570;SDS011;8903;52.220;20.978;2022-11-20T09:52:58;51.50;;;30.27;;
17570;SDS011;8903;52.220;20.978;2022-11-20T09:55:39;54.37;;;31.83;;
17570;SDS011;8903;52.220;20.978;2022-11-20T09:58:12;52.80;;;30.40;;
17570;SDS011;8903;52.220;20.978;2022-11-20T10:00:45;50.00;;;30.10;;
17570;SDS011;8903;52.220;20.978;2022-11-20T10:03:16;51.13;;;31.20;;
17570;SDS011;8903;52.220;20.978;2022-11-20T10:05:51;53.90;;;29.50;;
17570;SDS011;8903;52.220;20.978;2022-11-20T10:08:27;57.83;;;29.30;;
17570;SDS011;8903;52.220;20.978;2022-11-20T10:11:04;51.60;;;28.87;;
17570;SDS011;8903;52.220;20.978;2022-11-20T10:13:45;53.40;;;32.63;;
17570;SDS011;8903;52.220;20.978;2022-11-20T10:16:30;54.30;;;29.20;;
17570;SDS011;8903;52.220;20.978;2022-11-20T10:19:12;60.87;;;32.00;;
17570;SDS011;8903;52.220;20.978;2022-11-20T10:21:58;48.30;;;28.30;;
17570;SDS011;8903;52.220;20.978;2022-11-20T10:27:34;50.47;;;30.70;;
17570;SDS011;8903;52.220;20.978;2022-11-20T10:30:15;53.23;;;29.13;;
17570;SDS011;8903;52.220;20.978;2022-11-20T10:32:46;44.00;;;28.10;;
17570;SDS011;8903;52.220;20.978;2022-11-20T10:35:21;50.47;;;28.93;;
17570;SDS011;8903;52.220;20.978;2022-11-20T10:37:55;46.37;;;29.30;;
17570;SDS011;8903;52.220;20.978;2022-11-20T10:40:30;51.47;;;31.83;;
17570;SDS011;8903;52.220;20.978;2022-11-20T10:43:02;53.03;;;30.27;;
17570;SDS011;8903;52.220;20.978;2022-11-20T10:45:43;55.70;;;28.93;;
17570;SDS011;8903;52.220;20.978;2022-11-20T10:48:20;57.20;;;31.27;;
17570;SDS011;8903;52.220;20.978;2022-11-20T10:50:58;52.03;;;29.30;;
17570;SDS011;8903;52.220;20.978;2022-11-20T10:53:42;59.47;;;31.93;;
17570;SDS011;8903;52.220;20.978;2022-11-20T10:56:24;49.73;;;29.77;;
17570;SDS011;8903;52.220;20.978;2022-11-20T10:59:12;58.33;;;31.80;;
17570;SDS011;8903;52.220;20.978;2022-11-20T11:01:53;53.40;;;29.83;;
17570;SDS011;8903;52.220;20.978;2022-11-20T11:04:24;45.83;;;27.53;;
17570;SDS011;8903;52.220;20.978;2022-11-20T11:07:03;49.70;;;28.17;;
17570;SDS011;8903;52.220;20.978;2022-11-20T11:09:43;57.07;;;29.63;;
17570;SDS011;8903;52.220;20.978;2022-11-20T11:12:18;45.33;;;29.07;;
17570;SDS011;8903;52.220;20.978;2022-11-20T11:15:11;50.97;;;27.67;;
17570;SDS011;8903;52.220;20.978;2022-11-20T11:17:46;43.00;;;26.57;;
17570;SDS011;8903;52.220;20.978;2022-11-20T11:20:18;43.37;;;26.07;;
17570;SDS011;8903;52.220;20.978;2022-11-20T11:22:50;47.27;;;27.67;;
17570;SDS011;8903;52.220;20.978;2022-11-20T11:25:26;51.70;;;26.80;;
17570;SDS011;8903;52.220;20.978;2022-11-20T11:27:58;43.77;;;27.53;;
17570;SDS011;8903;52.220;20.978;2022-11-20T11:30:29;41.03;;;25.70;;
17570;SDS011;8903;52.220;20.978;2022-11-20T11:33:11;42.20;;;25.77;;
17570;SDS011;8903;52.220;20.978;2022-11-20T11:35:46;40.37;;;25.27;;
17570;SDS011;8903;52.220;20.978;2022-11-20T11:38:16;49.10;;;26.67;;
17570;SDS011;8903;52.220;20.978;2022-11-20T11:40:55;44.73;;;29.73;;
17570;SDS011;8903;52.220;20.978;2022-11-20T11:43:28;49.23;;;27.73;;
17570;SDS011;8903;52.220;20.978;2022-11-20T11:46:25;42.50;;;27.60;;
17570;SDS011;8903;52.220;20.978;2022-11-20T11:49:14;50.57;;;29.53;;
17570;SDS011;8903;52.220;20.978;2022-11-20T11:51:56;49.47;;;27.80;;
17570;SDS011;8903;52.220;20.978;2022-11-20T11:54:32;49.27;;;29.13;;
17570;SDS011;8903;52.220;20.978;2022-11-20T11:57:05;47.67;;;28.60;;
17570;SDS011;8903;52.220;20.978;2022-11-20T11:59:47;48.70;;;28.23;;
17570;SDS011;8903;52.220;20.978;2022-11-20T12:02:32;56.67;;;28.33;;
17570;SDS011;8903;52.220;20.978;2022-11-20T12:05:08;43.80;;;27.27;;
17570;SDS011;8903;52.220;20.978;2022-11-20T12:07:45;41.70;;;23.13;;
17570;SDS011;8903;52.220;20.978;2022-11-20T12:10:28;43.90;;;26.03;;
17570;SDS011;8903;52.220;20.978;2022-11-20T12:13:11;39.63;;;24.60;;
17570;SDS011;8903;52.220;20.978;2022-11-20T12:15:52;36.57;;;24.20;;
17570;SDS011;8903;52.220;20.978;2022-11-20T12:18:23;42.00;;;25.07;;
17570;SDS011;8903;52.220;20.978;2022-11-20T12:20:54;39.83;;;25.27;;
17570;SDS011;8903;52.220;20.978;2022-11-20T12:23:41;34.47;;;23.90;;
17570;SDS011;8903;52.220;20.978;2022-11-20T12:26:20;42.03;;;25.57;;
17570;SDS011;8903;52.220;20.978;2022-11-20T12:29:07;43.57;;;24.40;;
17570;SDS011;8903;52.220;20.978;2022-11-20T12:32:00;33.13;;;21.93;;
17570;SDS011;8903;52.220;20.978;2022-11-20T12:34:43;37.60;;;23.90;;
17570;SDS011;8903;52.220;20.978;2022-11-20T12:37:23;33.70;;;20.67;;
17570;SDS011;8903;52.220;20.978;2022-11-20T12:40:20;41.23;;;23.30;;
17570;SDS011;8903;52.220;20.978;2022-11-20T12:43:06;39.13;;;23.00;;
17570;SDS011;8903;52.220;20.978;2022-11-20T12:46:08;40.27;;;24.90;;
17570;SDS011;8903;52.220;20.978;2022-11-20T12:49:17;44.83;;;24.37;;
17570;SDS011;8903;52.220;20.978;2022-11-20T12:52:07;37.97;;;23.70;;
17570;SDS011;8903;52.220;20.978;2022-11-20T12:54:51;32.50;;;19.87;;
17570;SDS011;8903;52.220;20.978;2022-11-20T12:57:41;42.30;;;23.90;;
17570;SDS011;8903;52.220;20.978;2022-11-20T13:00:15;35.37;;;21.63;;
17570;SDS011;8903;52.220;20.978;2022-11-20T13:03:13;36.97;;;20.67;;
17570;SDS011;8903;52.220;20.978;2022-11-20T13:06:16;35.60;;;21.90;;
17570;SDS011;8903;52.220;20.978;2022-11-20T13:08:52;39.60;;;23.07;;
17570;SDS011;8903;52.220;20.978;2022-11-20T13:11:31;36.53;;;21.83;;
17570;SDS011;8903;52.220;20.978;2022-11-20T13:14:24;41.77;;;24.47;;
17570;SDS011;8903;52.220;20.978;2022-11-20T13:17:00;38.33;;;22.50;;
17570;SDS011;8903;52.220;20.978;2022-11-20T13:19:35;43.60;;;24.60;;
17570;SDS011;8903;52.220;20.978;2022-11-20T13:22:07;38.60;;;23.67;;
17570;SDS011;8903;52.220;20.978;2022-11-20T13:24:36;37.17;;;22.63;;
17570;SDS011;8903;52.220;20.978;2022-11-20T13:27:17;48.57;;;25.47;;
17570;SDS011;8903;52.220;20.978;2022-11-20T13:29:57;38.50;;;23.80;;
17570;SDS011;8903;52.220;20.978;2022-11-20T13:32:31;40.07;;;24.57;;
17570;SDS011;8903;52.220;20.978;2022-11-20T13:35:03;39.80;;;25.37;;
17570;SDS011;8903;52.220;20.978;2022-11-20T13:37:37;38.90;;;25.70;;
17570;SDS011;8903;52.220;20.978;2022-11-20T13:40:12;50.43;;;26.37;;
17570;SDS011;8903;52.220;20.978;2022-11-20T13:42:54;44.50;;;27.87;;
17570;SDS011;8903;52.220;20.978;2022-11-20T13:45:24;50.87;;;27.60;;
17570;SDS011;8903;52.220;20.978;2022-11-20T13:47:58;45.90;;;28.73;;
17570;SDS011;8903;52.220;20.978;2022-11-20T13:50:39;46.73;;;25.93;;
17570;SDS011;8903;52.220;20.978;2022-11-20T13:53:19;43.77;;;27.07;;
17570;SDS011;8903;52.220;20.978;2022-11-20T13:56:08;45.97;;;29.07;;
17570;SDS011;8903;52.220;20.978;2022-11-20T13:58:54;46.27;;;27.80;;
17570;SDS011;8903;52.220;20.978;2022-11-20T14:01:34;46.40;;;28.77;;
17570;SDS011;8903;52.220;20.978;2022-11-20T14:04:06;49.57;;;29.43;;
17570;SDS011;8903;52.220;20.978;2022-11-20T14:06:40;49.60;;;28.40;;
17570;SDS011;8903;52.220;20.978;2022-11-20T14:09:12;40.50;;;25.37;;
17570;SDS011;8903;52.220;20.978;2022-11-20T14:11:55;47.30;;;28.23;;
17570;SDS011;8903;52.220;20.978;2022-11-20T14:14:23;46.00;;;26.10;;
17570;SDS011;8903;52.220;20.978;2022-11-20T14:16:52;49.93;;;30.10;;
17570;SDS011;8903;52.220;20.978;2022-11-20T14:19:34;48.93;;;28.83;;
17570;SDS011;8903;52.220;20.978;2022-11-20T14:22:09;53.40;;;30.13;;
17570;SDS011;8903;52.220;20.978;2022-11-20T14:24:48;48.00;;;28.50;;
17570;SDS011;8903;52.220;20.978;2022-11-20T14:27:28;43.53;;;27.00;;
17570;SDS011;8903;52.220;20.978;2022-11-20T14:30:00;47.13;;;29.03;;
17570;SDS011;8903;52.220;20.978;2022-11-20T14:32:30;46.60;;;28.73;;
17570;SDS011;8903;52.220;20.978;2022-11-20T14:35:03;52.67;;;29.90;;
17570;SDS011;8903;52.220;20.978;2022-11-20T14:37:36;52.27;;;29.47;;
17570;SDS011;8903;52.220;20.978;2022-11-20T14:42:57;48.53;;;27.17;;
17570;SDS011;8903;52.220;20.978;2022-11-20T14:45:29;52.10;;;30.30;;
17570;SDS011;8903;52.220;20.978;2022-11-20T14:47:57;45.43;;;29.10;;
17570;SDS011;8903;52.220;20.978;2022-11-20T14:50:27;50.50;;;30.53;;
17570;SDS011;8903;52.220;20.978;2022-11-20T14:52:56;52.60;;;29.93;;
17570;SDS011;8903;52.220;20.978;2022-11-20T14:55:27;47.83;;;29.60;;
17570;SDS011;8903;52.220;20.978;2022-11-20T14:57:59;47.20;;;30.23;;
17570;SDS011;8903;52.220;20.978;2022-11-20T15:00:31;47.63;;;28.00;;